sensor_id;sensor_type;location;lat;lon;timestamp;P1;durP1;ratioP1;P2;durP2;ratioP2
56333;SDS011;42240;53.626;55.886;2023-02-18T00:00:19;0.60;;;0.60;;
56333;SDS011;42240;53.626;55.886;2023-02-18T00:01:55;0.60;;;0.60;;
56333;SDS011;42240;53.626;55.886;2023-02-18T00:03:28;0.60;;;0.60;;
56333;SDS011;42240;53.626;55.886;2023-02-18T00:05:02;0.60;;;0.60;;
56333;SDS011;42240;53.626;55.886;2023-02-18T00:06:35;0.60;;;0.60;;
56333;SDS011;42240;53.626;55.886;2023-02-18T00:08:08;0.60;;;0.60;;
56333;SDS011;42240;53.626;55.886;2023-02-18T00:09:41;0.60;;;0.60;;
56333;SDS011;42240;53.626;55.886;2023-02-18T00:11:15;0.60;;;0.60;;
56333;SDS011;42240;53.626;55.886;2023-02-18T00:12:49;0.60;;;0.60;;
56333;SDS011;42240;53.626;55.886;2023-02-18T00:14:22;0.60;;;0.60;;
56333;SDS011;42240;53.626;55.886;2023-02-18T00:16:00;0.60;;;0.60;;
56333;SDS011;42240;53.626;55.886;2023-02-18T00:17:35;0.60;;;0.60;;
56333;SDS011;42240;53.626;55.886;2023-02-18T00:19:13;0.60;;;0.60;;
56333;SDS011;42240;53.626;55.886;2023-02-18T00:20:48;0.60;;;0.60;;
56333;SDS011;42240;53.626;55.886;2023-02-18T00:22:21;0.60;;;0.60;;
56333;SDS011;42240;53.626;55.886;2023-02-18T00:23:54;0.60;;;0.60;;
56333;SDS011;42240;53.626;55.886;2023-02-18T00:25:28;0.60;;;0.60;;
56333;SDS011;42240;53.626;55.886;2023-02-18T00:27:01;0.60;;;0.60;;
56333;SDS011;42240;53.626;55.886;2023-02-18T00:28:34;0.53;;;0.53;;
56333;SDS011;42240;53.626;55.886;2023-02-18T00:30:08;0.60;;;0.60;;
56333;SDS011;42240;53.626;55.886;2023-02-18T00:31:44;0.60;;;0.60;;
56333;SDS011;42240;53.626;55.886;2023-02-18T00:33:18;0.60;;;0.60;;
56333;SDS011;42240;53.626;55.886;2023-02-18T00:34:51;0.60;;;0.60;;
56333;SDS011;42240;53.626;55.886;2023-02-18T00:36:24;0.60;;;0.60;;
56333;SDS011;42240;53.626;55.886;2023-02-18T00:37:58;0.60;;;0.60;;
56333;SDS011;42240;53.626;55.886;2023-02-18T00:39:31;0.60;;;0.60;;
56333;SDS011;42240;53.626;55.886;2023-02-18T00:41:04;0.60;;;0.60;;
56333;SDS011;42240;53.626;55.886;2023-02-18T00:42:38;0.60;;;0.60;;
56333;SDS011;42240;53.626;55.886;2023-02-18T00:44:12;0.60;;;0.60;;
56333;SDS011;42240;53.626;55.886;2023-02-18T00:45:45;0.60;;;0.60;;
56333;SDS011;42240;53.626;55.886;2023-02-18T00:47:18;0.60;;;0.60;;
56333;SDS011;42240;53.626;55.886;2023-02-18T00:48:52;0.60;;;0.60;;
56333;SDS011;42240;53.626;55.886;2023-02-18T00:50:25;0.60;;;0.60;;
56333;SDS011;42240;53.626;55.886;2023-02-18T00:51:58;0.60;;;0.60;;
56333;SDS011;42240;53.626;55.886;2023-02-18T00:53:32;0.60;;;0.60;;
56333;SDS011;42240;53.626;55.886;2023-02-18T00:55:06;0.60;;;0.60;;
56333;SDS011;42240;53.626;55.886;2023-02-18T00:56:39;0.60;;;0.60;;
56333;SDS011;42240;53.626;55.886;2023-02-18T00:58:12;0.60;;;0.60;;
56333;SDS011;42240;53.626;55.886;2023-02-18T00:59:47;0.60;;;0.60;;
56333;SDS011;42240;53.626;55.886;2023-02-18T01:01:20;0.60;;;0.60;;
56333;SDS011;42240;53.626;55.886;2023-02-18T01:02:53;0.60;;;0.60;;
56333;SDS011;42240;53.626;55.886;2023-02-18T01:04:26;0.60;;;0.60;;
56333;SDS011;42240;53.626;55.886;2023-02-18T01:05:59;0.60;;;0.60;;
56333;SDS011;42240;53.626;55.886;2023-02-18T01:07:32;0.60;;;0.60;;
56333;SDS011;42240;53.626;55.886;2023-02-18T01:09:05;0.60;;;0.60;;
56333;SDS011;42240;53.626;55.886;2023-02-18T01:10:42;0.60;;;0.60;;
56333;SDS011;42240;53.626;55.886;2023-02-18T01:12:17;0.60;;;0.60;;
56333;SDS011;42240;53.626;55.886;2023-02-18T01:13:50;0.60;;;0.60;;
56333;SDS011;42240;53.626;55.886;2023-02-18T01:15:23;0.60;;;0.60;;
56333;SDS011;42240;53.626;55.886;2023-02-18T01:16:56;0.60;;;0.60;;
56333;SDS011;42240;53.626;55.886;2023-02-18T01:18:30;0.60;;;0.60;;
56333;SDS011;42240;53.626;55.886;2023-02-18T01:20:03;0.60;;;0.60;;
56333;SDS011;42240;53.626;55.886;2023-02-18T01:21:39;0.60;;;0.60;;
56333;SDS011;42240;53.626;55.886;2023-02-18T01:23:12;0.60;;;0.60;;
56333;SDS011;42240;53.626;55.886;2023-02-18T01:24:46;0.60;;;0.60;;
56333;SDS011;42240;53.626;55.886;2023-02-18T01:26:20;0.70;;;0.70;;
56333;SDS011;42240;53.626;55.886;2023-02-18T01:27:53;0.60;;;0.60;;
56333;SDS011;42240;53.626;55.886;2023-02-18T01:29:27;0.60;;;0.60;;
56333;SDS011;42240;53.626;55.886;2023-02-18T01:31:04;0.60;;;0.60;;
56333;SDS011;42240;53.626;55.886;2023-02-18T01:32:39;0.60;;;0.60;;
56333;SDS011;42240;53.626;55.886;2023-02-18T01:34:13;0.60;;;0.60;;
56333;SDS011;42240;53.626;55.886;2023-02-18T01:35:46;0.60;;;0.60;;
56333;SDS011;42240;53.626;55.886;2023-02-18T01:37:20;0.60;;;0.60;;
56333;SDS011;42240;53.626;55.886;2023-02-18T01:38:55;0.60;;;0.60;;
56333;SDS011;42240;53.626;55.886;2023-02-18T01:40:28;0.60;;;0.60;;
56333;SDS011;42240;53.626;55.886;2023-02-18T01:42:01;0.60;;;0.60;;
56333;SDS011;42240;53.626;55.886;2023-02-18T01:43:34;0.60;;;0.60;;
56333;SDS011;42240;53.626;55.886;2023-02-18T01:47:06;0.60;;;0.60;;
56333;SDS011;42240;53.626;55.886;2023-02-18T01:48:45;0.60;;;0.60;;
56333;SDS011;42240;53.626;55.886;2023-02-18T01:50:27;0.60;;;0.60;;
56333;SDS011;42240;53.626;55.886;2023-02-18T01:52:02;0.60;;;0.60;;
56333;SDS011;42240;53.626;55.886;2023-02-18T01:55:22;0.60;;;0.60;;
56333;SDS011;42240;53.626;55.886;2023-02-18T01:58:33;0.60;;;0.60;;
56333;SDS011;42240;53.626;55.886;2023-02-18T02:00:11;0.60;;;0.60;;
56333;SDS011;42240;53.626;55.886;2023-02-18T02:01:46;0.60;;;0.60;;
56333;SDS011;42240;53.626;55.886;2023-02-18T02:03:20;0.60;;;0.60;;
56333;SDS011;42240;53.626;55.886;2023-02-18T02:04:53;0.60;;;0.60;;
56333;SDS011;42240;53.626;55.886;2023-02-18T02:06:26;0.60;;;0.60;;
56333;SDS011;42240;53.626;55.886;2023-02-18T02:08:00;0.60;;;0.60;;
56333;SDS011;42240;53.626;55.886;2023-02-18T02:09:34;0.60;;;0.60;;
56333;SDS011;42240;53.626;55.886;2023-02-18T02:16:21;0.60;;;0.60;;
56333;SDS011;42240;53.626;55.886;2023-02-18T02:24:56;0.60;;;0.60;;
56333;SDS011;42240;53.626;55.886;2023-02-18T02:32:41;0.60;;;0.60;;
56333;SDS011;42240;53.626;55.886;2023-02-18T02:38:11;0.70;;;0.70;;
56333;SDS011;42240;53.626;55.886;2023-02-18T02:41:53;0.70;;;0.70;;
56333;SDS011;42240;53.626;55.886;2023-02-18T02:43:41;0.60;;;0.60;;
56333;SDS011;42240;53.626;55.886;2023-02-18T02:47:40;0.68;;;0.68;;
56333;SDS011;42240;53.626;55.886;2023-02-18T02:52:44;0.63;;;0.63;;
56333;SDS011;42240;53.626;55.886;2023-02-18T02:54:24;0.60;;;0.60;;
56333;SDS011;42240;53.626;55.886;2023-02-18T02:56:00;0.60;;;0.60;;
56333;SDS011;42240;53.626;55.886;2023-02-18T02:57:42;0.70;;;0.70;;
56333;SDS011;42240;53.626;55.886;2023-02-18T02:59:23;0.60;;;0.60;;
56333;SDS011;42240;53.626;55.886;2023-02-18T03:01:18;0.60;;;0.60;;
56333;SDS011;42240;53.626;55.886;2023-02-18T03:10:49;0.60;;;0.60;;
56333;SDS011;42240;53.626;55.886;2023-02-18T03:12:33;0.60;;;0.60;;
56333;SDS011;42240;53.626;55.886;2023-02-18T03:14:14;0.60;;;0.60;;
56333;SDS011;42240;53.626;55.886;2023-02-18T03:18:07;0.60;;;0.60;;
56333;SDS011;42240;53.626;55.886;2023-02-18T03:20:05;0.60;;;0.60;;
56333;SDS011;42240;53.626;55.886;2023-02-18T03:21:52;0.60;;;0.60;;
56333;SDS011;42240;53.626;55.886;2023-02-18T03:23:43;0.60;;;0.60;;
56333;SDS011;42240;53.626;55.886;2023-02-18T03:25:25;0.60;;;0.60;;
56333;SDS011;42240;53.626;55.886;2023-02-18T03:27:03;0.60;;;0.60;;
56333;SDS011;42240;53.626;55.886;2023-02-18T03:28:41;0.60;;;0.60;;
56333;SDS011;42240;53.626;55.886;2023-02-18T03:30:18;0.60;;;0.60;;
56333;SDS011;42240;53.626;55.886;2023-02-18T03:33:45;0.60;;;0.60;;
56333;SDS011;42240;53.626;55.886;2023-02-18T03:35:31;0.60;;;0.60;;
56333;SDS011;42240;53.626;55.886;2023-02-18T03:37:05;0.60;;;0.60;;
56333;SDS011;42240;53.626;55.886;2023-02-18T03:39:03;0.70;;;0.70;;
56333;SDS011;42240;53.626;55.886;2023-02-18T03:40:42;0.60;;;0.60;;
56333;SDS011;42240;53.626;55.886;2023-02-18T03:42:16;0.60;;;0.60;;
56333;SDS011;42240;53.626;55.886;2023-02-18T03:43:51;0.60;;;0.60;;
56333;SDS011;42240;53.626;55.886;2023-02-18T03:45:27;0.60;;;0.60;;
56333;SDS011;42240;53.626;55.886;2023-02-18T03:47:01;0.60;;;0.60;;
56333;SDS011;42240;53.626;55.886;2023-02-18T03:48:35;0.60;;;0.60;;
56333;SDS011;42240;53.626;55.886;2023-02-18T03:50:08;0.60;;;0.60;;
56333;SDS011;42240;53.626;55.886;2023-02-18T03:51:41;0.60;;;0.60;;
56333;SDS011;42240;53.626;55.886;2023-02-18T03:53:15;0.60;;;0.60;;
56333;SDS011;42240;53.626;55.886;2023-02-18T03:54:48;0.60;;;0.60;;
56333;SDS011;42240;53.626;55.886;2023-02-18T03:56:22;0.60;;;0.60;;
56333;SDS011;42240;53.626;55.886;2023-02-18T03:57:55;0.60;;;0.60;;
56333;SDS011;42240;53.626;55.886;2023-02-18T03:59:28;0.60;;;0.60;;
56333;SDS011;42240;53.626;55.886;2023-02-18T04:01:01;0.60;;;0.60;;
56333;SDS011;42240;53.626;55.886;2023-02-18T04:02:35;0.60;;;0.60;;
56333;SDS011;42240;53.626;55.886;2023-02-18T04:04:09;0.60;;;0.60;;
56333;SDS011;42240;53.626;55.886;2023-02-18T04:05:42;0.60;;;0.60;;
56333;SDS011;42240;53.626;55.886;2023-02-18T04:07:15;0.60;;;0.60;;
56333;SDS011;42240;53.626;55.886;2023-02-18T04:08:48;0.60;;;0.60;;
56333;SDS011;42240;53.626;55.886;2023-02-18T04:10:22;0.60;;;0.60;;
56333;SDS011;42240;53.626;55.886;2023-02-18T04:11:55;0.60;;;0.60;;
56333;SDS011;42240;53.626;55.886;2023-02-18T04:13:28;0.60;;;0.60;;
56333;SDS011;42240;53.626;55.886;2023-02-18T04:15:01;0.60;;;0.60;;
56333;SDS011;42240;53.626;55.886;2023-02-18T04:16:34;0.60;;;0.60;;
56333;SDS011;42240;53.626;55.886;2023-02-18T04:18:07;0.60;;;0.60;;
56333;SDS011;42240;53.626;55.886;2023-02-18T04:19:40;0.60;;;0.60;;
56333;SDS011;42240;53.626;55.886;2023-02-18T04:21:13;0.60;;;0.60;;
56333;SDS011;42240;53.626;55.886;2023-02-18T04:22:46;0.60;;;0.60;;
56333;SDS011;42240;53.626;55.886;2023-02-18T04:24:20;0.60;;;0.60;;
56333;SDS011;42240;53.626;55.886;2023-02-18T04:25:53;0.60;;;0.60;;
56333;SDS011;42240;53.626;55.886;2023-02-18T04:27:26;0.60;;;0.60;;
56333;SDS011;42240;53.626;55.886;2023-02-18T04:28:59;0.60;;;0.60;;
56333;SDS011;42240;53.626;55.886;2023-02-18T04:30:32;0.50;;;0.50;;
56333;SDS011;42240;53.626;55.886;2023-02-18T04:32:06;0.50;;;0.50;;
56333;SDS011;42240;53.626;55.886;2023-02-18T04:33:39;0.60;;;0.60;;
56333;SDS011;42240;53.626;55.886;2023-02-18T04:35:12;0.60;;;0.60;;
56333;SDS011;42240;53.626;55.886;2023-02-18T04:36:45;0.60;;;0.60;;
56333;SDS011;42240;53.626;55.886;2023-02-18T04:38:18;0.60;;;0.60;;
56333;SDS011;42240;53.626;55.886;2023-02-18T04:39:51;0.60;;;0.60;;
56333;SDS011;42240;53.626;55.886;2023-02-18T04:41:24;0.60;;;0.60;;
56333;SDS011;42240;53.626;55.886;2023-02-18T04:42:57;0.60;;;0.60;;
56333;SDS011;42240;53.626;55.886;2023-02-18T04:44:31;0.60;;;0.60;;
56333;SDS011;42240;53.626;55.886;2023-02-18T04:46:04;0.60;;;0.60;;
56333;SDS011;42240;53.626;55.886;2023-02-18T04:47:38;0.50;;;0.50;;
56333;SDS011;42240;53.626;55.886;2023-02-18T04:49:11;0.50;;;0.50;;
56333;SDS011;42240;53.626;55.886;2023-02-18T04:50:44;0.50;;;0.50;;
56333;SDS011;42240;53.626;55.886;2023-02-18T04:52:17;0.50;;;0.50;;
56333;SDS011;42240;53.626;55.886;2023-02-18T04:53:50;0.50;;;0.50;;
56333;SDS011;42240;53.626;55.886;2023-02-18T04:55:23;0.50;;;0.50;;
56333;SDS011;42240;53.626;55.886;2023-02-18T04:56:56;0.50;;;0.50;;
56333;SDS011;42240;53.626;55.886;2023-02-18T04:58:29;0.50;;;0.50;;
56333;SDS011;42240;53.626;55.886;2023-02-18T05:00:03;0.50;;;0.50;;
56333;SDS011;42240;53.626;55.886;2023-02-18T05:01:38;0.50;;;0.50;;
56333;SDS011;42240;53.626;55.886;2023-02-18T05:03:11;0.50;;;0.50;;
56333;SDS011;42240;53.626;55.886;2023-02-18T05:04:45;0.50;;;0.50;;
56333;SDS011;42240;53.626;55.886;2023-02-18T05:06:18;0.50;;;0.50;;
56333;SDS011;42240;53.626;55.886;2023-02-18T05:07:51;0.50;;;0.50;;
56333;SDS011;42240;53.626;55.886;2023-02-18T05:09:24;0.50;;;0.50;;
56333;SDS011;42240;53.626;55.886;2023-02-18T05:10:57;0.50;;;0.50;;
56333;SDS011;42240;53.626;55.886;2023-02-18T05:12:30;0.50;;;0.50;;
56333;SDS011;42240;53.626;55.886;2023-02-18T05:14:03;0.50;;;0.50;;
56333;SDS011;42240;53.626;55.886;2023-02-18T05:15:36;0.50;;;0.50;;
56333;SDS011;42240;53.626;55.886;2023-02-18T05:17:09;0.50;;;0.50;;
56333;SDS011;42240;53.626;55.886;2023-02-18T05:18:42;0.50;;;0.50;;
56333;SDS011;42240;53.626;55.886;2023-02-18T05:20:15;0.50;;;0.50;;
56333;SDS011;42240;53.626;55.886;2023-02-18T05:21:48;0.50;;;0.50;;
56333;SDS011;42240;53.626;55.886;2023-02-18T05:23:21;0.50;;;0.50;;
56333;SDS011;42240;53.626;55.886;2023-02-18T05:24:55;0.50;;;0.50;;
56333;SDS011;42240;53.626;55.886;2023-02-18T05:26:28;0.50;;;0.50;;
56333;SDS011;42240;53.626;55.886;2023-02-18T05:28:01;0.50;;;0.50;;
56333;SDS011;42240;53.626;55.886;2023-02-18T05:29:34;0.50;;;0.50;;
56333;SDS011;42240;53.626;55.886;2023-02-18T05:31:07;0.50;;;0.50;;
56333;SDS011;42240;53.626;55.886;2023-02-18T05:32:41;0.50;;;0.50;;
56333;SDS011;42240;53.626;55.886;2023-02-18T05:34:14;0.50;;;0.50;;
56333;SDS011;42240;53.626;55.886;2023-02-18T05:35:47;0.50;;;0.50;;
56333;SDS011;42240;53.626;55.886;2023-02-18T05:37:21;0.50;;;0.50;;
56333;SDS011;42240;53.626;55.886;2023-02-18T05:38:54;0.50;;;0.50;;
56333;SDS011;42240;53.626;55.886;2023-02-18T05:40:27;0.50;;;0.50;;
56333;SDS011;42240;53.626;55.886;2023-02-18T05:42:00;0.50;;;0.50;;
56333;SDS011;42240;53.626;55.886;2023-02-18T05:43:33;0.50;;;0.50;;
56333;SDS011;42240;53.626;55.886;2023-02-18T05:45:25;0.50;;;0.50;;
56333;SDS011;42240;53.626;55.886;2023-02-18T05:47:05;0.50;;;0.50;;
56333;SDS011;42240;53.626;55.886;2023-02-18T05:48:42;0.50;;;0.50;;
56333;SDS011;42240;53.626;55.886;2023-02-18T05:50:15;0.50;;;0.50;;
56333;SDS011;42240;53.626;55.886;2023-02-18T05:51:49;0.50;;;0.50;;
56333;SDS011;42240;53.626;55.886;2023-02-18T05:53:21;0.50;;;0.50;;
56333;SDS011;42240;53.626;55.886;2023-02-18T05:54:54;0.50;;;0.50;;
56333;SDS011;42240;53.626;55.886;2023-02-18T05:56:27;0.50;;;0.50;;
56333;SDS011;42240;53.626;55.886;2023-02-18T05:58:00;0.50;;;0.50;;
56333;SDS011;42240;53.626;55.886;2023-02-18T05:59:33;0.50;;;0.50;;
56333;SDS011;42240;53.626;55.886;2023-02-18T06:01:06;0.50;;;0.50;;
56333;SDS011;42240;53.626;55.886;2023-02-18T06:02:39;0.50;;;0.50;;
56333;SDS011;42240;53.626;55.886;2023-02-18T06:04:12;0.50;;;0.50;;
56333;SDS011;42240;53.626;55.886;2023-02-18T06:05:49;0.50;;;0.50;;
56333;SDS011;42240;53.626;55.886;2023-02-18T06:07:23;0.50;;;0.50;;
56333;SDS011;42240;53.626;55.886;2023-02-18T06:08:56;0.50;;;0.50;;
56333;SDS011;42240;53.626;55.886;2023-02-18T06:10:29;0.50;;;0.50;;
56333;SDS011;42240;53.626;55.886;2023-02-18T06:12:02;0.50;;;0.50;;
56333;SDS011;42240;53.626;55.886;2023-02-18T06:13:35;0.50;;;0.50;;
56333;SDS011;42240;53.626;55.886;2023-02-18T06:15:08;0.50;;;0.50;;
56333;SDS011;42240;53.626;55.886;2023-02-18T06:16:42;0.50;;;0.50;;
56333;SDS011;42240;53.626;55.886;2023-02-18T06:18:15;0.40;;;0.40;;
56333;SDS011;42240;53.626;55.886;2023-02-18T06:19:48;0.50;;;0.50;;
56333;SDS011;42240;53.626;55.886;2023-02-18T06:21:21;0.50;;;0.50;;
56333;SDS011;42240;53.626;55.886;2023-02-18T06:22:54;0.45;;;0.45;;
56333;SDS011;42240;53.626;55.886;2023-02-18T06:24:27;0.40;;;0.40;;
56333;SDS011;42240;53.626;55.886;2023-02-18T06:26:00;0.50;;;0.50;;
56333;SDS011;42240;53.626;55.886;2023-02-18T06:27:33;0.43;;;0.43;;
56333;SDS011;42240;53.626;55.886;2023-02-18T06:29:06;0.40;;;0.40;;
56333;SDS011;42240;53.626;55.886;2023-02-18T06:30:39;0.43;;;0.43;;
56333;SDS011;42240;53.626;55.886;2023-02-18T06:32:12;0.40;;;0.40;;
56333;SDS011;42240;53.626;55.886;2023-02-18T06:33:45;0.45;;;0.45;;
56333;SDS011;42240;53.626;55.886;2023-02-18T06:35:18;0.40;;;0.40;;
56333;SDS011;42240;53.626;55.886;2023-02-18T06:36:51;0.40;;;0.40;;
56333;SDS011;42240;53.626;55.886;2023-02-18T06:38:24;0.40;;;0.40;;
56333;SDS011;42240;53.626;55.886;2023-02-18T06:39:58;0.50;;;0.50;;
56333;SDS011;42240;53.626;55.886;2023-02-18T06:43:03;0.40;;;0.40;;
56333;SDS011;42240;53.626;55.886;2023-02-18T06:44:36;0.50;;;0.50;;
56333;SDS011;42240;53.626;55.886;2023-02-18T06:46:09;0.40;;;0.40;;
56333;SDS011;42240;53.626;55.886;2023-02-18T06:47:43;0.50;;;0.50;;
56333;SDS011;42240;53.626;55.886;2023-02-18T06:49:16;0.40;;;0.40;;
56333;SDS011;42240;53.626;55.886;2023-02-18T06:50:49;0.40;;;0.40;;
56333;SDS011;42240;53.626;55.886;2023-02-18T06:52:22;0.40;;;0.40;;
56333;SDS011;42240;53.626;55.886;2023-02-18T06:53:55;0.50;;;0.50;;
56333;SDS011;42240;53.626;55.886;2023-02-18T06:55:28;0.50;;;0.50;;
56333;SDS011;42240;53.626;55.886;2023-02-18T06:57:01;0.50;;;0.50;;
56333;SDS011;42240;53.626;55.886;2023-02-18T06:58:34;0.40;;;0.40;;
56333;SDS011;42240;53.626;55.886;2023-02-18T07:00:07;0.50;;;0.50;;
56333;SDS011;42240;53.626;55.886;2023-02-18T07:01:40;0.50;;;0.50;;
56333;SDS011;42240;53.626;55.886;2023-02-18T07:03:13;0.40;;;0.40;;
56333;SDS011;42240;53.626;55.886;2023-02-18T07:04:47;0.50;;;0.50;;
56333;SDS011;42240;53.626;55.886;2023-02-18T07:06:20;0.50;;;0.50;;
56333;SDS011;42240;53.626;55.886;2023-02-18T07:07:52;0.40;;;0.40;;
56333;SDS011;42240;53.626;55.886;2023-02-18T07:09:26;0.40;;;0.40;;
56333;SDS011;42240;53.626;55.886;2023-02-18T07:10:58;0.40;;;0.40;;
56333;SDS011;42240;53.626;55.886;2023-02-18T07:12:31;0.40;;;0.40;;
56333;SDS011;42240;53.626;55.886;2023-02-18T07:14:04;0.40;;;0.40;;
56333;SDS011;42240;53.626;55.886;2023-02-18T07:15:39;0.50;;;0.50;;
56333;SDS011;42240;53.626;55.886;2023-02-18T07:17:12;0.40;;;0.40;;
56333;SDS011;42240;53.626;55.886;2023-02-18T07:18:46;0.40;;;0.40;;
56333;SDS011;42240;53.626;55.886;2023-02-18T07:20:19;0.40;;;0.40;;
56333;SDS011;42240;53.626;55.886;2023-02-18T07:21:53;0.40;;;0.40;;
56333;SDS011;42240;53.626;55.886;2023-02-18T07:23:29;0.40;;;0.40;;
56333;SDS011;42240;53.626;55.886;2023-02-18T07:25:02;0.45;;;0.45;;
56333;SDS011;42240;53.626;55.886;2023-02-18T07:26:35;0.50;;;0.50;;
56333;SDS011;42240;53.626;55.886;2023-02-18T07:28:10;0.50;;;0.50;;
56333;SDS011;42240;53.626;55.886;2023-02-18T07:29:43;0.50;;;0.50;;
56333;SDS011;42240;53.626;55.886;2023-02-18T07:31:16;0.40;;;0.40;;
56333;SDS011;42240;53.626;55.886;2023-02-18T07:32:49;0.50;;;0.50;;
56333;SDS011;42240;53.626;55.886;2023-02-18T07:34:22;0.45;;;0.45;;
56333;SDS011;42240;53.626;55.886;2023-02-18T07:35:56;0.50;;;0.50;;
56333;SDS011;42240;53.626;55.886;2023-02-18T07:37:31;0.40;;;0.40;;
56333;SDS011;42240;53.626;55.886;2023-02-18T07:39:04;0.43;;;0.43;;
56333;SDS011;42240;53.626;55.886;2023-02-18T07:40:37;0.40;;;0.40;;
56333;SDS011;42240;53.626;55.886;2023-02-18T07:42:12;0.50;;;0.50;;
56333;SDS011;42240;53.626;55.886;2023-02-18T07:43:45;0.47;;;0.47;;
56333;SDS011;42240;53.626;55.886;2023-02-18T07:45:19;0.50;;;0.50;;
56333;SDS011;42240;53.626;55.886;2023-02-18T07:46:52;0.47;;;0.47;;
56333;SDS011;42240;53.626;55.886;2023-02-18T07:48:25;0.40;;;0.40;;
56333;SDS011;42240;53.626;55.886;2023-02-18T07:49:58;0.50;;;0.50;;
56333;SDS011;42240;53.626;55.886;2023-02-18T07:51:31;0.47;;;0.47;;
56333;SDS011;42240;53.626;55.886;2023-02-18T07:53:04;0.50;;;0.50;;
56333;SDS011;42240;53.626;55.886;2023-02-18T07:54:38;0.50;;;0.50;;
56333;SDS011;42240;53.626;55.886;2023-02-18T07:56:11;0.50;;;0.50;;
56333;SDS011;42240;53.626;55.886;2023-02-18T07:57:44;0.40;;;0.40;;
56333;SDS011;42240;53.626;55.886;2023-02-18T07:59:29;0.50;;;0.50;;
56333;SDS011;42240;53.626;55.886;2023-02-18T08:01:09;0.50;;;0.50;;
56333;SDS011;42240;53.626;55.886;2023-02-18T08:02:46;0.50;;;0.50;;
56333;SDS011;42240;53.626;55.886;2023-02-18T08:04:19;0.50;;;0.50;;
56333;SDS011;42240;53.626;55.886;2023-02-18T08:05:53;0.50;;;0.50;;
56333;SDS011;42240;53.626;55.886;2023-02-18T08:07:27;0.50;;;0.50;;
56333;SDS011;42240;53.626;55.886;2023-02-18T08:09:00;0.50;;;0.50;;
56333;SDS011;42240;53.626;55.886;2023-02-18T08:10:33;0.50;;;0.50;;
56333;SDS011;42240;53.626;55.886;2023-02-18T08:12:06;0.50;;;0.50;;
56333;SDS011;42240;53.626;55.886;2023-02-18T08:13:40;0.40;;;0.40;;
56333;SDS011;42240;53.626;55.886;2023-02-18T08:15:13;0.50;;;0.50;;
56333;SDS011;42240;53.626;55.886;2023-02-18T08:16:46;0.50;;;0.50;;
56333;SDS011;42240;53.626;55.886;2023-02-18T08:18:20;0.50;;;0.50;;
56333;SDS011;42240;53.626;55.886;2023-02-18T08:19:54;0.50;;;0.50;;
56333;SDS011;42240;53.626;55.886;2023-02-18T08:21:27;0.50;;;0.50;;
56333;SDS011;42240;53.626;55.886;2023-02-18T08:23:00;0.50;;;0.50;;
56333;SDS011;42240;53.626;55.886;2023-02-18T08:24:33;0.43;;;0.43;;
56333;SDS011;42240;53.626;55.886;2023-02-18T08:26:06;0.50;;;0.50;;
56333;SDS011;42240;53.626;55.886;2023-02-18T08:27:45;0.50;;;0.50;;
56333;SDS011;42240;53.626;55.886;2023-02-18T08:29:19;0.50;;;0.50;;
56333;SDS011;42240;53.626;55.886;2023-02-18T08:30:52;0.50;;;0.50;;
56333;SDS011;42240;53.626;55.886;2023-02-18T08:32:26;0.50;;;0.50;;
56333;SDS011;42240;53.626;55.886;2023-02-18T08:34:00;0.50;;;0.50;;
56333;SDS011;42240;53.626;55.886;2023-02-18T08:35:35;0.50;;;0.50;;
56333;SDS011;42240;53.626;55.886;2023-02-18T08:37:08;0.50;;;0.50;;
56333;SDS011;42240;53.626;55.886;2023-02-18T08:38:41;0.50;;;0.50;;
56333;SDS011;42240;53.626;55.886;2023-02-18T08:40:15;0.50;;;0.50;;
56333;SDS011;42240;53.626;55.886;2023-02-18T08:41:49;0.50;;;0.50;;
56333;SDS011;42240;53.626;55.886;2023-02-18T08:43:22;0.50;;;0.50;;
56333;SDS011;42240;53.626;55.886;2023-02-18T08:44:55;0.40;;;0.40;;
56333;SDS011;42240;53.626;55.886;2023-02-18T08:46:28;0.40;;;0.40;;
56333;SDS011;42240;53.626;55.886;2023-02-18T08:48:06;0.47;;;0.47;;
56333;SDS011;42240;53.626;55.886;2023-02-18T08:49:51;0.50;;;0.50;;
56333;SDS011;42240;53.626;55.886;2023-02-18T08:51:25;0.40;;;0.40;;
56333;SDS011;42240;53.626;55.886;2023-02-18T08:52:59;0.50;;;0.50;;
56333;SDS011;42240;53.626;55.886;2023-02-18T08:54:34;0.50;;;0.50;;
56333;SDS011;42240;53.626;55.886;2023-02-18T08:56:08;0.40;;;0.40;;
56333;SDS011;42240;53.626;55.886;2023-02-18T08:57:42;0.40;;;0.40;;
56333;SDS011;42240;53.626;55.886;2023-02-18T08:59:15;0.40;;;0.40;;
56333;SDS011;42240;53.626;55.886;2023-02-18T09:00:48;0.50;;;0.50;;
56333;SDS011;42240;53.626;55.886;2023-02-18T09:02:21;0.40;;;0.40;;
56333;SDS011;42240;53.626;55.886;2023-02-18T09:03:55;0.50;;;0.50;;
56333;SDS011;42240;53.626;55.886;2023-02-18T09:05:28;0.50;;;0.50;;
56333;SDS011;42240;53.626;55.886;2023-02-18T09:07:01;0.40;;;0.40;;
56333;SDS011;42240;53.626;55.886;2023-02-18T09:08:35;0.50;;;0.50;;
56333;SDS011;42240;53.626;55.886;2023-02-18T09:10:09;0.40;;;0.40;;
56333;SDS011;42240;53.626;55.886;2023-02-18T09:11:43;0.40;;;0.40;;
56333;SDS011;42240;53.626;55.886;2023-02-18T09:13:17;0.40;;;0.40;;
56333;SDS011;42240;53.626;55.886;2023-02-18T09:14:50;0.50;;;0.50;;
56333;SDS011;42240;53.626;55.886;2023-02-18T09:16:23;0.40;;;0.40;;
56333;SDS011;42240;53.626;55.886;2023-02-18T09:17:57;0.40;;;0.40;;
56333;SDS011;42240;53.626;55.886;2023-02-18T09:19:31;0.50;;;0.50;;
56333;SDS011;42240;53.626;55.886;2023-02-18T09:21:05;0.40;;;0.40;;
56333;SDS011;42240;53.626;55.886;2023-02-18T09:22:41;0.45;;;0.45;;
56333;SDS011;42240;53.626;55.886;2023-02-18T09:24:14;0.50;;;0.50;;
56333;SDS011;42240;53.626;55.886;2023-02-18T09:25:46;0.50;;;0.50;;
56333;SDS011;42240;53.626;55.886;2023-02-18T09:27:20;0.50;;;0.50;;
56333;SDS011;42240;53.626;55.886;2023-02-18T09:28:54;0.40;;;0.40;;
56333;SDS011;42240;53.626;55.886;2023-02-18T09:30:28;0.30;;;0.30;;
56333;SDS011;42240;53.626;55.886;2023-02-18T09:32:02;0.50;;;0.50;;
56333;SDS011;42240;53.626;55.886;2023-02-18T09:33:39;0.40;;;0.40;;
56333;SDS011;42240;53.626;55.886;2023-02-18T09:35:17;0.40;;;0.40;;
56333;SDS011;42240;53.626;55.886;2023-02-18T09:36:49;0.40;;;0.40;;
56333;SDS011;42240;53.626;55.886;2023-02-18T09:38:22;0.50;;;0.50;;
56333;SDS011;42240;53.626;55.886;2023-02-18T09:39:56;0.50;;;0.50;;
56333;SDS011;42240;53.626;55.886;2023-02-18T09:41:50;0.40;;;0.40;;
56333;SDS011;42240;53.626;55.886;2023-02-18T09:43:46;0.40;;;0.40;;
56333;SDS011;42240;53.626;55.886;2023-02-18T09:45:21;0.40;;;0.40;;
56333;SDS011;42240;53.626;55.886;2023-02-18T09:47:14;0.40;;;0.40;;
56333;SDS011;42240;53.626;55.886;2023-02-18T09:48:53;0.50;;;0.50;;
56333;SDS011;42240;53.626;55.886;2023-02-18T09:50:31;0.40;;;0.40;;
56333;SDS011;42240;53.626;55.886;2023-02-18T09:52:27;0.40;;;0.40;;
56333;SDS011;42240;53.626;55.886;2023-02-18T09:54:04;0.40;;;0.40;;
56333;SDS011;42240;53.626;55.886;2023-02-18T09:55:38;0.40;;;0.40;;
56333;SDS011;42240;53.626;55.886;2023-02-18T09:57:28;0.40;;;0.40;;
56333;SDS011;42240;53.626;55.886;2023-02-18T09:59:17;0.40;;;0.40;;
56333;SDS011;42240;53.626;55.886;2023-02-18T10:01:00;0.40;;;0.40;;
56333;SDS011;42240;53.626;55.886;2023-02-18T10:04:44;0.47;;;0.47;;
56333;SDS011;42240;53.626;55.886;2023-02-18T10:06:30;0.40;;;0.40;;
56333;SDS011;42240;53.626;55.886;2023-02-18T10:08:05;0.50;;;0.50;;
56333;SDS011;42240;53.626;55.886;2023-02-18T10:09:44;0.40;;;0.40;;
56333;SDS011;42240;53.626;55.886;2023-02-18T10:13:00;0.43;;;0.43;;
56333;SDS011;42240;53.626;55.886;2023-02-18T10:14:34;0.50;;;0.50;;